Time;durP1;ratioP1;P1;durP2;ratioP2;P2;SDS_P1;SDS_P2;PMS_P1;PMS_P2;Temp;Humidity;BMP_temperature;BMP_pressure;BME280_temperature;BME280_humidity;BME280_pressure;Samples;Min_cycle;Max_cycle;Signal;HPM_P1;HPM_P2
2021/03/07 00:01:14;;;;;;;5.88;1.60;;;;;;;0.57;83.65;101794.75;5052324;28;20025;-87
2021/03/07 00:03:39;;;;;;;8.38;1.80;;;;;;;0.57;83.11;101792.19;5052661;28;20108;-87
2021/03/07 00:06:06;;;;;;;7.40;1.60;;;;;;;0.52;83.47;101786.88;5052973;28;20032;-87
2021/03/07 00:08:38;;;;;;;4.85;1.40;;;;;;;0.57;83.08;101781.97;5053238;28;20095;-87
2021/03/07 00:11:03;;;;;;;5.72;1.70;;;;;;;0.55;83.49;101781.91;5053642;28;20028;-87
2021/03/07 00:13:29;;;;;;;8.88;1.80;;;;;;;0.58;83.68;101781.16;5053626;28;20489;-87
2021/03/07 00:15:54;;;;;;;4.55;1.70;;;;;;;0.57;82.92;101767.53;5054379;28;20032;-88
2021/03/07 00:18:19;;;;;;;6.97;1.90;;;;;;;0.63;82.07;101777.13;5052814;28;20108;-87
2021/03/07 00:20:44;;;;;;;7.75;1.30;;;;;;;0.60;82.64;101769.34;5054137;28;20507;-87
2021/03/07 00:23:10;;;;;;;5.50;1.67;;;;;;;0.58;82.86;101771.81;5052679;28;20025;-87
2021/03/07 00:25:36;;;;;;;5.75;1.77;;;;;;;0.61;82.47;101768.53;5052880;28;20032;-87
2021/03/07 00:28:01;;;;;;;7.20;1.95;;;;;;;0.62;82.22;101767.75;5053719;28;20441;-87
2021/03/07 00:30:26;;;;;;;6.45;1.80;;;;;;;0.59;82.68;101763.38;5053900;28;20073;-87
2021/03/07 00:32:51;;;;;;;6.72;1.60;;;;;;;0.60;82.72;101759.13;5054209;28;20035;-87
2021/03/07 00:35:17;;;;;;;4.60;1.60;;;;;;;0.59;82.76;101750.63;5055853;28;20060;-87
2021/03/07 00:37:42;;;;;;;6.20;1.80;;;;;;;0.62;82.38;101757.53;5056549;28;20032;-87
2021/03/07 00:40:09;;;;;;;6.72;1.70;;;;;;;0.57;83.18;101754.78;5057795;28;20055;-87
2021/03/07 00:42:35;;;;;;;4.72;1.63;;;;;;;0.59;82.13;101754.84;5056141;28;20027;-87
2021/03/07 00:45:00;;;;;;;6.93;2.08;;;;;;;0.61;82.80;101759.19;5056584;28;20021;-87
2021/03/07 00:47:26;;;;;;;9.02;2.10;;;;;;;0.59;82.70;101754.84;5057050;28;20036;-87
2021/03/07 00:49:51;;;;;;;5.07;1.33;;;;;;;0.58;82.67;101755.63;5058631;28;20029;-87
2021/03/07 00:52:16;;;;;;;5.35;1.65;;;;;;;0.61;82.11;101746.41;5057321;28;20421;-87
2021/03/07 00:54:41;;;;;;;6.72;1.55;;;;;;;0.61;82.73;101738.75;5057250;28;20343;-87
2021/03/07 00:57:07;;;;;;;4.32;1.60;;;;;;;0.58;82.67;101730.09;5057027;28;20024;-87
2021/03/07 00:59:32;;;;;;;4.70;1.40;;;;;;;0.58;82.61;101733.53;5057077;28;20021;-87
2021/03/07 01:01:57;;;;;;;7.00;1.70;;;;;;;0.61;81.83;101730.22;5057300;28;20043;-87
2021/03/07 01:04:22;;;;;;;8.13;1.48;;;;;;;0.62;81.47;101725.22;5057682;28;20082;-87
2021/03/07 01:06:48;;;;;;;3.20;1.25;;;;;;;0.59;81.55;101722.53;5057862;28;20033;-87
2021/03/07 01:09:13;;;;;;;7.63;1.58;;;;;;;0.58;81.63;101718.22;5058786;28;20571;-87
2021/03/07 01:11:39;;;;;;;10.93;1.83;;;;;;;0.64;81.13;101717.59;5056487;28;20392;-87
2021/03/07 01:14:05;;;;;;;7.57;1.33;;;;;;;0.64;81.38;101709.94;5055844;28;20024;-87
2021/03/07 01:16:31;;;;;;;6.38;1.50;;;;;;;0.66;80.49;101711.75;5056082;28;20029;-87
2021/03/07 01:18:56;;;;;;;5.38;1.50;;;;;;;0.65;81.04;101706.59;5055617;28;20075;-87
2021/03/07 01:21:21;;;;;;;4.63;1.35;;;;;;;0.63;80.76;101698.84;5055685;28;20459;-87
2021/03/07 01:23:47;;;;;;;5.60;1.33;;;;;;;0.60;81.71;101695.31;5056665;28;20029;-87
2021/03/07 01:26:12;;;;;;;5.43;1.27;;;;;;;0.62;81.04;101694.56;5055761;28;20039;-87
2021/03/07 01:28:38;;;;;;;7.15;1.10;;;;;;;0.65;80.94;101691.28;5055355;28;20025;-87
2021/03/07 01:31:03;;;;;;;6.13;1.35;;;;;;;0.62;80.63;101679.25;5055381;28;20029;-87
2021/03/07 01:33:28;;;;;;;3.40;1.20;;;;;;;0.66;80.35;101670.91;5056832;28;20056;-87
2021/03/07 01:35:53;;;;;;;8.27;1.48;;;;;;;0.67;79.88;101667.53;5056601;28;20319;-87
2021/03/07 01:38:19;;;;;;;3.85;1.27;;;;;;;0.68;80.08;101666.75;5056700;28;20485;-87
2021/03/07 01:40:49;;;;;;;3.83;1.13;;;;;;;0.62;80.67;101663.06;5056143;28;20025;-88
2021/03/07 01:43:16;;;;;;;5.97;1.20;;;;;;;0.65;80.23;101663.19;5055433;28;20066;-87
2021/03/07 01:45:42;;;;;;;7.22;1.40;;;;;;;0.65;79.92;101655.53;5055859;28;20078;-88
2021/03/07 01:48:10;;;;;;;5.88;1.10;;;;;;;0.67;79.53;101659.88;5055660;28;20480;-88
2021/03/07 01:50:38;;;;;;;4.57;1.50;;;;;;;0.69;79.64;101653.16;5056539;28;20071;-88
2021/03/07 01:53:04;;;;;;;3.17;1.10;;;;;;;0.70;78.82;101648.91;5056189;28;20082;-87
2021/03/07 01:55:34;;;;;;;5.85;1.02;;;;;;;0.69;78.48;101653.16;5055827;28;20090;-87
2021/03/07 01:58:18;;;;;;;4.40;1.25;;;;;;;0.70;78.77;101643.81;5056102;28;20399;-87
2021/03/07 02:00:43;;;;;;;4.97;1.50;;;;;;;0.75;77.95;101634.66;5057012;28;20063;-87
2021/03/07 02:03:08;;;;;;;5.82;1.30;;;;;;;0.76;78.32;101638.06;5056363;28;20020;-87
2021/03/07 02:05:34;;;;;;;5.05;1.33;;;;;;;0.74;79.02;101630.38;5057805;28;20025;-87
2021/03/07 02:08:00;;;;;;;5.93;1.30;;;;;;;0.75;79.11;101637.22;5057193;28;20064;-87
2021/03/07 02:10:29;;;;;;;3.03;1.00;;;;;;;0.74;78.35;101627.81;5056810;28;20013;-87
2021/03/07 02:12:59;;;;;;;5.72;1.10;;;;;;;0.75;78.03;101618.47;5056774;28;20492;-87
2021/03/07 02:15:26;;;;;;;5.32;1.30;;;;;;;0.74;78.36;101617.59;5056286;28;20377;-87
2021/03/07 02:17:51;;;;;;;5.38;1.20;;;;;;;0.78;77.91;101616.03;5057293;28;20051;-87
2021/03/07 02:20:20;;;;;;;6.72;1.40;;;;;;;0.76;78.48;101615.09;5059774;28;20036;-87
2021/03/07 02:23:00;;;;;;;6.05;1.05;;;;;;;0.79;77.32;101615.22;5061383;28;20024;-87
2021/03/07 02:25:27;;;;;;;3.55;1.00;;;;;;;0.82;76.78;101612.78;5059968;28;20028;-87
2021/03/07 02:27:53;;;;;;;3.40;1.00;;;;;;;0.78;78.14;101616.03;5062631;28;20029;-87
2021/03/07 02:30:19;;;;;;;3.30;0.95;;;;;;;0.79;76.99;101605.00;5061317;28;20025;-88
2021/03/07 02:33:37;;;;;;;6.72;1.48;;;;;;;0.75;78.56;101600.59;5064167;28;20037;-87
2021/03/07 02:36:08;;;;;;;10.02;1.30;;;;;;;0.80;77.47;101592.31;5055020;28;20032;-87
2021/03/07 02:38:36;;;;;;;7.15;1.13;;;;;;;0.76;77.77;101585.31;5077435;28;20081;-87
2021/03/07 02:41:02;;;;;;;7.35;1.33;;;;;;;0.74;77.88;101573.31;5078210;28;20005;-87
2021/03/07 02:43:33;;;;;;;3.88;1.13;;;;;;;0.74;77.99;101578.41;5076207;28;20031;-87
2021/03/07 02:46:01;;;;;;;5.55;1.20;;;;;;;0.75;77.71;101578.47;5074265;28;20027;-87
2021/03/07 02:48:27;;;;;;;4.40;1.05;;;;;;;0.76;77.98;101581.91;5078866;28;20029;-86
2021/03/07 02:50:56;;;;;;;7.20;1.73;;;;;;;0.71;78.03;101568.97;5077179;28;20021;-86
2021/03/07 02:53:23;;;;;;;4.20;1.60;;;;;;;0.75;77.52;101575.06;5078592;28;20035;-87
2021/03/07 02:55:59;;;;;;;4.72;1.13;;;;;;;0.74;77.72;101570.75;5077748;28;20020;-86
2021/03/07 02:58:25;;;;;;;6.10;1.27;;;;;;;0.67;78.16;101570.50;5077820;28;20031;-87
2021/03/07 03:00:56;;;;;;;6.20;1.45;;;;;;;0.73;77.81;101569.88;5075481;28;20013;-87
2021/03/07 03:03:27;;;;;;;9.25;1.30;;;;;;;0.72;78.02;101569.84;5076976;28;20029;-87
2021/03/07 03:05:53;;;;;;;5.40;1.20;;;;;;;0.71;78.38;101573.19;5076978;28;20019;-87
2021/03/07 03:08:19;;;;;;;7.20;1.50;;;;;;;0.71;78.53;101562.97;5077038;28;20040;-86
2021/03/07 03:10:45;;;;;;;5.63;1.17;;;;;;;0.75;78.24;101565.72;5077886;28;20025;-86
2021/03/07 03:13:11;;;;;;;3.88;1.00;;;;;;;0.69;78.65;101560.38;5077494;28;20021;-86
2021/03/07 03:15:37;;;;;;;4.97;1.10;;;;;;;0.69;78.32;101558.69;5077544;28;20024;-87
2021/03/07 03:18:04;;;;;;;4.63;1.30;;;;;;;0.71;77.85;101561.31;5075482;28;20005;-86
2021/03/07 03:20:30;;;;;;;4.13;1.00;;;;;;;0.70;77.46;101551.91;5078254;28;20029;-86
2021/03/07 03:22:56;;;;;;;5.78;1.20;;;;;;;0.73;77.53;101558.81;5078806;28;20031;-87
2021/03/07 03:25:21;;;;;;;4.05;1.00;;;;;;;0.73;77.15;101552.00;5076439;28;20033;-87
2021/03/07 03:27:47;;;;;;;4.90;1.10;;;;;;;0.69;78.09;101555.28;5076297;28;20057;-87
2021/03/07 03:30:16;;;;;;;5.90;1.55;;;;;;;0.71;77.75;101550.22;5073742;28;20029;-87
2021/03/07 03:32:42;;;;;;;7.35;1.20;;;;;;;0.72;77.24;101539.19;5077884;28;20005;-86
2021/03/07 03:35:12;;;;;;;4.57;1.23;;;;;;;0.71;77.71;101532.34;5077768;28;20039;-86
2021/03/07 03:37:39;;;;;;;7.40;1.10;;;;;;;0.69;77.05;101520.41;5078761;28;20059;-86
2021/03/07 03:40:08;;;;;;;4.80;1.20;;;;;;;0.68;77.21;101523.78;5077979;28;20057;-86
2021/03/07 03:42:36;;;;;;;7.70;1.67;;;;;;;0.65;77.85;101526.22;5077496;28;20017;-86
2021/03/07 03:45:03;;;;;;;5.82;1.33;;;;;;;0.70;77.55;101531.47;5078439;28;20013;-86
2021/03/07 03:47:29;;;;;;;6.65;1.40;;;;;;;0.69;77.94;101534.84;5077826;28;20009;-86
2021/03/07 03:49:58;;;;;;;4.30;1.23;;;;;;;0.68;76.60;101533.13;5076782;28;20059;-87
2021/03/07 03:52:25;;;;;;;4.35;1.33;;;;;;;0.67;77.34;101527.13;5077648;28;20024;-87
2021/03/07 03:55:08;;;;;;;9.88;1.52;;;;;;;0.68;77.45;101522.91;5076080;28;20029;-87
2021/03/07 03:57:36;;;;;;;5.18;1.30;;;;;;;0.64;77.29;101515.91;5077237;28;20540;-87
2021/03/07 04:00:06;;;;;;;9.60;1.67;;;;;;;0.63;78.21;101509.94;5078149;28;20021;-86
2021/03/07 04:02:34;;;;;;;5.38;1.33;;;;;;;0.62;77.84;101518.44;5077250;28;20063;-87
2021/03/07 04:05:00;;;;;;;4.90;1.50;;;;;;;0.65;77.10;101513.44;5077376;28;20053;-86
2021/03/07 04:07:27;;;;;;;9.43;1.88;;;;;;;0.66;77.61;101519.41;5077318;28;20009;-87
2021/03/07 04:09:54;;;;;;;6.75;1.63;;;;;;;0.65;78.30;101512.56;5079900;28;20019;-87
2021/03/07 04:12:20;;;;;;;4.63;1.40;;;;;;;0.67;77.24;101511.78;5081100;28;20041;-87
2021/03/07 04:14:46;;;;;;;6.05;1.20;;;;;;;0.67;77.54;101500.72;5081668;28;20089;-86
2021/03/07 04:17:14;;;;;;;5.45;1.30;;;;;;;0.69;77.41;101499.97;5081409;28;20005;-86
2021/03/07 04:19:40;;;;;;;4.13;1.35;;;;;;;0.71;77.85;101496.59;5081106;28;20032;-86
2021/03/07 04:22:06;;;;;;;4.63;1.50;;;;;;;0.68;77.52;101487.16;5080617;28;20017;-86
2021/03/07 04:24:31;;;;;;;6.47;1.60;;;;;;;0.68;77.61;101487.16;5079399;28;20079;-86
2021/03/07 04:26:57;;;;;;;4.72;1.30;;;;;;;0.74;77.16;101491.59;5078804;28;20037;-87
2021/03/07 04:29:23;;;;;;;7.85;1.88;;;;;;;0.71;77.57;101497.50;5081558;28;20021;-86
2021/03/07 04:31:48;;;;;;;6.75;1.58;;;;;;;0.73;77.60;101492.41;5073910;28;20564;-87
2021/03/07 04:34:14;;;;;;;5.60;1.80;;;;;;;0.75;77.06;101488.25;5072814;28;20055;-87
2021/03/07 04:36:41;;;;;;;6.47;2.22;;;;;;;0.79;77.30;101490.09;5072812;28;20021;-87
2021/03/07 04:39:07;;;;;;;8.13;2.05;;;;;;;0.75;77.04;101486.56;5057557;28;20024;-87
2021/03/07 04:41:32;;;;;;;5.97;1.63;;;;;;;0.75;77.39;101481.47;5056036;28;20539;-87
2021/03/07 04:43:57;;;;;;;6.88;2.03;;;;;;;0.76;77.68;101485.75;5056107;28;20047;-87
2021/03/07 04:46:24;;;;;;;4.05;1.40;;;;;;;0.75;77.69;101488.25;5056355;28;20033;-87
2021/03/07 04:48:51;;;;;;;6.95;1.63;;;;;;;0.75;77.95;101488.25;5056299;28;20044;-87
2021/03/07 04:51:16;;;;;;;6.68;1.65;;;;;;;0.71;78.17;101486.38;5059861;28;20446;-87
2021/03/07 04:53:42;;;;;;;7.18;2.03;;;;;;;0.73;77.55;101477.97;5057208;28;20108;-87
2021/03/07 04:56:08;;;;;;;6.25;1.70;;;;;;;0.72;77.66;101478.78;5056069;28;20489;-87
2021/03/07 04:58:35;;;;;;;5.35;1.60;;;;;;;0.73;77.52;101470.31;5057341;28;20028;-87
2021/03/07 05:01:00;;;;;;;6.65;1.70;;;;;;;0.71;77.48;101474.50;5057264;28;20033;-87
2021/03/07 05:03:26;;;;;;;7.63;1.90;;;;;;;0.73;77.66;101469.44;5056129;28;20465;-88
2021/03/07 05:05:51;;;;;;;7.80;1.55;;;;;;;0.73;77.63;101474.56;5057672;28;20028;-87
2021/03/07 05:08:16;;;;;;;5.63;2.70;;;;;;;0.70;78.29;101467.66;5056566;28;20388;-87
2021/03/07 05:10:42;;;;;;;6.53;1.90;;;;;;;0.72;77.93;101475.38;5055658;28;20499;-87
2021/03/07 05:13:07;;;;;;;7.35;1.80;;;;;;;0.74;78.05;101473.72;5055832;28;20111;-87
2021/03/07 05:15:33;;;;;;;6.63;1.65;;;;;;;0.73;78.08;101466.88;5055629;28;20029;-87
2021/03/07 05:17:58;;;;;;;4.50;1.58;;;;;;;0.68;78.42;101471.84;5055490;28;20021;-87
2021/03/07 05:20:23;;;;;;;4.28;1.50;;;;;;;0.73;77.65;101466.88;5054599;28;20020;-87
2021/03/07 05:22:49;;;;;;;5.25;1.70;;;;;;;0.71;78.58;101455.75;5058858;28;20436;-87
2021/03/07 05:25:14;;;;;;;9.40;1.75;;;;;;;0.73;78.16;101464.34;5055511;28;20021;-87
2021/03/07 05:27:40;;;;;;;5.80;1.50;;;;;;;0.75;78.31;101457.63;5055430;28;20116;-87
2021/03/07 05:30:06;;;;;;;6.47;1.67;;;;;;;0.73;78.03;101461.78;5055495;28;20433;-87
2021/03/07 05:32:31;;;;;;;6.07;1.50;;;;;;;0.73;78.14;101455.00;5055735;28;20027;-87
2021/03/07 05:34:57;;;;;;;4.00;1.45;;;;;;;0.70;78.61;101449.78;5055315;28;20064;-87
2021/03/07 05:37:22;;;;;;;5.75;1.75;;;;;;;0.68;78.74;101449.72;5056841;28;20074;-86
2021/03/07 05:39:47;;;;;;;5.90;1.60;;;;;;;0.68;78.20;101449.72;5055274;28;20485;-86
2021/03/07 05:42:12;;;;;;;5.38;1.70;;;;;;;0.67;78.33;101447.09;5056833;28;20056;-87
2021/03/07 05:44:39;;;;;;;9.23;1.90;;;;;;;0.67;78.46;101442.88;5055442;28;20370;-87
2021/03/07 05:47:04;;;;;;;7.03;1.90;;;;;;;0.68;78.96;101441.22;5056722;28;20024;-87
2021/03/07 05:49:30;;;;;;;6.40;1.73;;;;;;;0.68;78.40;101442.06;5055452;28;20021;-87
2021/03/07 05:51:56;;;;;;;4.93;1.70;;;;;;;0.68;78.46;101442.06;5055082;28;20025;-87
2021/03/07 05:54:22;;;;;;;4.25;1.80;;;;;;;0.73;78.22;101433.69;5054910;28;20028;-87
2021/03/07 05:56:49;;;;;;;6.90;2.28;;;;;;;0.74;78.10;101437.97;5056696;28;20025;-87
2021/03/07 05:59:16;;;;;;;7.70;2.10;;;;;;;0.73;78.49;101428.59;5055118;28;20070;-87
2021/03/07 06:01:41;;;;;;;6.35;1.63;;;;;;;0.74;78.14;101428.66;5054821;28;20370;-87
2021/03/07 06:04:07;;;;;;;8.38;2.22;;;;;;;0.76;77.71;101419.34;5056429;28;20036;-87
2021/03/07 06:06:33;;;;;;;8.80;2.53;;;;;;;0.78;78.30;101429.63;5055408;28;20031;-87
2021/03/07 06:09:18;;;;;;;5.82;1.88;;;;;;;0.82;78.03;101426.38;5055029;28;20477;-87
2021/03/07 06:11:46;;;;;;;8.25;1.92;;;;;;;0.79;77.79;101419.47;5054787;28;20123;-88
2021/03/07 06:14:27;;;;;;;6.78;1.92;;;;;;;0.84;77.53;101417.09;5060685;28;20403;-88
2021/03/07 06:17:06;;;;;;;8.88;1.92;;;;;;;0.86;77.34;101424.00;5065055;28;20496;-88
2021/03/07 06:20:05;;;;;;;6.43;2.20;;;;;;;0.86;77.43;101413.78;5064045;28;20029;-88
2021/03/07 06:22:32;;;;;;;7.30;2.03;;;;;;;0.84;78.06;101412.84;5065475;28;20021;-88
2021/03/07 06:24:58;;;;;;;6.25;1.90;;;;;;;0.87;77.12;101419.75;5064089;28;20032;-88
2021/03/07 06:27:24;;;;;;;6.18;1.80;;;;;;;0.89;77.45;101423.22;5064668;28;20365;-88
2021/03/07 06:29:57;;;;;;;6.90;2.08;;;;;;;0.92;77.40;101418.19;5062977;28;20017;-88
2021/03/07 06:32:24;;;;;;;5.18;1.75;;;;;;;0.92;76.75;101418.19;5060877;28;20025;-88
2021/03/07 06:34:49;;;;;;;11.50;2.30;;;;;;;0.95;77.09;101420.00;5061120;28;20123;-87
2021/03/07 06:37:15;;;;;;;6.55;2.20;;;;;;;0.96;76.73;101417.53;5060739;28;20460;-88
2021/03/07 06:39:41;;;;;;;7.55;2.15;;;;;;;0.96;77.21;101414.97;5059246;28;20021;-87
2021/03/07 06:42:08;;;;;;;6.97;1.60;;;;;;;0.98;76.80;101420.97;5062541;28;20021;-88
2021/03/07 06:44:35;;;;;;;6.32;1.98;;;;;;;0.97;77.42;101414.13;5062118;28;20031;-87
2021/03/07 06:47:12;;;;;;;6.15;1.70;;;;;;;0.95;77.71;101415.75;5058337;28;20103;-87
2021/03/07 06:49:38;;;;;;;11.70;1.92;;;;;;;0.95;77.15;101415.75;5062721;28;20025;-87
2021/03/07 06:52:18;;;;;;;7.50;1.80;;;;;;;0.99;77.54;101422.72;5059098;28;20047;-88
2021/03/07 06:55:02;;;;;;;8.35;1.88;;;;;;;0.95;78.11;101420.00;5060875;28;20578;-87
2021/03/07 06:57:29;;;;;;;6.85;1.60;;;;;;;1.00;77.60;101416.78;5061799;28;20020;-88
2021/03/07 06:59:54;;;;;;;9.68;2.10;;;;;;;0.99;77.81;101414.19;5061184;28;20025;-88
2021/03/07 07:02:20;;;;;;;8.25;1.73;;;;;;;1.01;77.99;101421.06;5061967;28;20432;-88
2021/03/07 07:04:45;;;;;;;9.50;1.90;;;;;;;1.00;78.57;101419.34;5060474;28;20017;-88
2021/03/07 07:07:16;;;;;;;7.45;2.22;;;;;;;1.06;79.11;101419.56;5061396;28;20029;-87
2021/03/07 07:10:02;;;;;;;7.53;2.03;;;;;;;1.04;78.60;101420.31;5058542;28;20017;-87
2021/03/07 07:12:29;;;;;;;5.38;1.73;;;;;;;1.18;78.95;101418.25;5058915;28;20083;-88
2021/03/07 07:15:12;;;;;;;8.48;1.90;;;;;;;1.12;78.83;101417.22;5058824;28;20024;-87
2021/03/07 07:17:38;;;;;;;10.25;2.42;;;;;;;1.17;79.60;101422.50;5060103;28;20021;-88
2021/03/07 07:20:07;;;;;;;7.05;2.35;;;;;;;1.21;79.06;101411.56;5056035;28;20075;-87
2021/03/07 07:22:32;;;;;;;7.72;1.95;;;;;;;1.26;79.21;101417.69;5055508;28;20029;-87
2021/03/07 07:24:58;;;;;;;9.10;2.40;;;;;;;1.36;79.67;101408.66;5058514;28;20083;-87
2021/03/07 07:27:30;;;;;;;7.63;2.00;;;;;;;1.38;79.24;101402.75;5058224;28;20039;-87
2021/03/07 07:29:55;;;;;;;6.13;2.20;;;;;;;1.35;79.29;101412.00;5053950;28;20028;-88
2021/03/07 07:32:44;;;;;;;8.55;2.33;;;;;;;1.34;79.34;101400.03;5053426;28;20393;-88
2021/03/07 07:35:14;;;;;;;8.70;2.22;;;;;;;1.32;78.93;101401.66;5054791;28;20493;-87
2021/03/07 07:37:49;;;;;;;9.20;2.40;;;;;;;1.40;79.29;101401.94;5053662;28;20025;-87
2021/03/07 07:40:15;;;;;;;7.95;2.63;;;;;;;1.33;79.04;101393.22;5054190;28;20028;-88
2021/03/07 07:42:54;;;;;;;11.82;1.90;;;;;;;1.35;78.88;101407.75;5053663;28;20025;-86
2021/03/07 07:45:21;;;;;;;6.15;1.83;;;;;;;1.47;78.21;101403.88;5052692;28;20429;-86
2021/03/07 07:47:48;;;;;;;5.30;1.88;;;;;;;1.48;79.02;101397.94;5054778;28;20032;-86
2021/03/07 07:50:29;;;;;;;7.53;1.77;;;;;;;1.50;78.59;101404.81;5058401;28;20040;-87
2021/03/07 07:52:55;;;;;;;6.68;1.85;;;;;;;1.57;77.60;101394.00;5061975;28;20067;-88
2021/03/07 07:55:41;;;;;;;7.93;1.90;;;;;;;1.50;76.89;101397.16;5061033;28;20036;-88
2021/03/07 07:58:06;;;;;;;6.43;1.63;;;;;;;1.55;76.51;101397.31;5058995;28;20021;-88
2021/03/07 08:00:47;;;;;;;7.78;1.67;;;;;;;1.65;75.14;101395.91;5059537;28;20025;-88
2021/03/07 08:03:36;;;;;;;7.60;1.90;;;;;;;1.69;75.25;101398.59;5076266;28;20224;-88
2021/03/07 08:06:03;;;;;;;8.43;1.95;;;;;;;1.69;74.84;101393.50;5074489;28;20100;-88
2021/03/07 08:08:42;;;;;;;7.90;1.67;;;;;;;1.72;74.79;101392.72;5059530;28;20024;-88
2021/03/07 08:11:27;;;;;;;7.38;1.73;;;;;;;1.73;74.75;101395.34;5061044;28;20021;-88
2021/03/07 08:13:54;;;;;;;8.15;2.20;;;;;;;1.77;74.12;101389.50;5059941;28;20442;-88
2021/03/07 08:16:42;;;;;;;7.80;1.60;;;;;;;1.95;75.85;101386.63;5057596;28;20036;-88
2021/03/07 08:19:18;;;;;;;6.10;1.92;;;;;;;2.09;74.99;101392.16;5055075;28;20017;-87
2021/03/07 08:22:00;;;;;;;6.00;1.92;;;;;;;2.10;74.68;101385.38;5053936;28;20074;-86
2021/03/07 08:24:51;;;;;;;7.45;2.30;;;;;;;1.96;74.83;101388.38;5054376;28;20060;-87
2021/03/07 08:27:34;;;;;;;11.18;2.47;;;;;;;2.03;74.62;101386.84;5053584;28;20393;-87
2021/03/07 08:30:00;;;;;;;8.80;1.77;;;;;;;2.01;74.03;101391.94;5053055;28;20112;-87
2021/03/07 08:32:34;;;;;;;7.38;1.70;;;;;;;1.91;75.22;101384.81;5053555;28;20106;-87
2021/03/07 08:35:11;;;;;;;5.05;1.77;;;;;;;1.92;75.66;101384.00;5053296;28;20025;-86
2021/03/07 08:37:37;;;;;;;6.60;2.10;;;;;;;1.91;75.40;101383.91;5056408;28;20054;-87
2021/03/07 08:40:29;;;;;;;8.77;2.33;;;;;;;1.99;76.41;101385.03;5059348;28;20052;-87
2021/03/07 08:43:20;;;;;;;9.30;1.88;;;;;;;2.01;75.49;101380.84;5058281;28;20024;-87
2021/03/07 08:46:11;;;;;;;7.68;1.90;;;;;;;2.05;75.81;101369.88;5057713;28;20025;-88
2021/03/07 08:48:40;;;;;;;6.93;2.22;;;;;;;1.90;76.29;101377.94;5058689;28;20029;-87
2021/03/07 08:51:07;;;;;;;8.68;2.53;;;;;;;1.95;75.91;101378.09;5055110;28;20083;-85
2021/03/07 08:53:36;;;;;;;10.50;2.20;;;;;;;2.43;76.57;101370.97;5053006;28;20043;-86
2021/03/07 08:56:02;;;;;;;5.85;1.70;;;;;;;2.16;75.10;101371.06;5056249;28;20017;-87
2021/03/07 08:59:06;;;;;;;8.65;2.00;;;;;;;2.08;75.90;101368.25;5056933;28;20091;-87
2021/03/07 09:01:32;;;;;;;7.15;1.90;;;;;;;2.21;75.88;101373.72;5035403;28;20053;-85
2021/03/07 09:03:59;;;;;;;6.68;2.03;;;;;;;2.32;75.62;101372.38;5053375;28;20166;-87
2021/03/07 09:06:32;;;;;;;7.38;2.05;;;;;;;2.10;74.63;101364.91;5055671;28;20425;-87
2021/03/07 09:09:06;;;;;;;9.20;2.10;;;;;;;2.26;74.99;101357.69;5056852;28;20024;-87
2021/03/07 09:11:33;;;;;;;8.73;2.15;;;;;;;2.50;73.61;101354.97;5056753;28;20017;-87
2021/03/07 09:13:59;;;;;;;8.15;2.30;;;;;;;2.54;73.36;101358.47;5056882;28;20040;-88
2021/03/07 09:16:53;;;;;;;9.07;1.90;;;;;;;2.47;72.82;101354.00;5055795;28;20024;-87
2021/03/07 09:19:24;;;;;;;8.07;1.90;;;;;;;2.45;71.96;101353.09;5056796;28;20024;-87
2021/03/07 09:22:09;;;;;;;7.93;2.20;;;;;;;2.56;71.29;101336.34;5055658;28;20572;-88
2021/03/07 09:24:35;;;;;;;7.97;2.78;;;;;;;2.68;70.92;101340.91;5055670;28;20047;-89
2021/03/07 09:27:11;;;;;;;5.38;1.60;;;;;;;2.68;70.80;101333.22;5055290;28;20035;-88
2021/03/07 09:29:51;;;;;;;9.60;2.13;;;;;;;2.68;70.47;101320.41;5055764;28;20060;-90
2021/03/07 09:32:40;;;;;;;10.30;2.58;;;;;;;3.83;66.83;101323.16;5056208;28;20031;-88
2021/03/07 09:35:25;;;;;;;7.85;1.77;;;;;;;4.15;65.23;101317.00;5080371;28;20020;-93
2021/03/07 09:37:54;;;;;;;;;;;;;;;4.66;65.42;101312.84;5071523;28;20033;-89
2021/03/07 09:40:20;;;;;;;8.15;2.13;;;;;;;4.20;67.06;101321.38;5055715;28;19916;-89
2021/03/07 09:42:54;;;;;;;6.47;2.08;;;;;;;4.13;66.44;101315.25;5055699;28;20096;-87
2021/03/07 09:45:19;;;;;;;5.63;2.10;;;;;;;4.09;67.99;101309.16;5056460;28;20032;-88
2021/03/07 09:47:45;;;;;;;7.93;2.22;;;;;;;3.56;68.66;101308.03;5054757;28;20025;-87
2021/03/07 09:50:11;;;;;;;8.82;1.90;;;;;;;3.97;68.39;101306.34;5055772;28;20112;-87
2021/03/07 09:52:37;;;;;;;6.07;2.20;;;;;;;4.00;67.57;101302.97;5055877;28;20036;-87
2021/03/07 09:55:02;;;;;;;6.78;2.42;;;;;;;4.29;67.46;101317.28;5054666;28;20025;-87
2021/03/07 09:57:27;;;;;;;8.07;2.50;;;;;;;4.24;67.82;101315.44;5055763;28;20111;-87
2021/03/07 09:59:53;;;;;;;7.90;2.92;;;;;;;4.43;67.15;101319.25;5054502;28;20369;-87
2021/03/07 10:02:19;;;;;;;8.60;2.58;;;;;;;5.03;65.02;101308.34;5055548;28;20036;-87
2021/03/07 10:04:50;;;;;;;10.70;2.33;;;;;;;4.56;65.33;101311.81;5057799;28;20115;-86
2021/03/07 10:07:21;;;;;;;9.75;2.83;;;;;;;4.56;66.29;101313.50;5053607;28;20021;-87
2021/03/07 10:10:11;;;;;;;11.07;2.70;;;;;;;5.70;63.10;101311.94;5054151;28;20029;-87
2021/03/07 10:12:54;;;;;;;11.48;5.38;;;;;;;5.05;64.26;101311.81;5054777;28;20159;-87
2021/03/07 10:15:34;;;;;;;10.43;3.10;;;;;;;6.59;60.45;101313.03;5054550;28;20025;-87
2021/03/07 10:18:01;;;;;;;10.10;2.50;;;;;;;4.88;62.68;101302.94;5054980;28;20430;-88
2021/03/07 10:20:39;;;;;;;7.30;2.10;;;;;;;4.61;66.10;101314.44;5054571;28;20107;-87
2021/03/07 10:23:04;;;;;;;13.05;2.33;;;;;;;4.64;64.77;101309.34;5054219;28;20020;-87
2021/03/07 10:25:36;;;;;;;7.78;2.10;;;;;;;5.07;64.23;101307.53;5054034;28;20078;-87
2021/03/07 10:28:07;;;;;;;8.57;2.42;;;;;;;5.41;63.63;101310.63;5056785;28;20500;-87
2021/03/07 10:30:57;;;;;;;12.10;2.90;;;;;;;5.90;62.10;101301.88;5057242;28;20036;-86
2021/03/07 10:33:34;;;;;;;7.68;2.42;;;;;;;5.88;60.07;101297.56;5056416;28;20025;-87
2021/03/07 10:36:07;;;;;;;9.52;2.40;;;;;;;5.38;61.75;101296.00;5057604;28;20037;-87
2021/03/07 10:38:33;;;;;;;8.13;2.45;;;;;;;5.03;62.86;101303.19;5063751;28;20481;-89
2021/03/07 10:41:16;;;;;;;9.60;2.50;;;;;;;4.71;63.58;101300.06;5061989;28;20023;-89
2021/03/07 10:43:49;;;;;;;13.02;3.70;;;;;;;4.75;64.13;101289.88;5061022;28;20021;-89
2021/03/07 10:46:35;;;;;;;7.47;2.60;;;;;;;4.41;64.61;101300.38;5059259;28;20120;-88
2021/03/07 10:49:04;;;;;;;13.32;7.22;;;;;;;4.30;65.19;101303.59;5057401;28;20119;-86
2021/03/07 10:51:30;;;;;;;10.88;2.85;;;;;;;4.13;65.82;101300.72;5054554;28;20021;-85
2021/03/07 10:53:56;;;;;;;26.77;4.45;;;;;;;4.34;65.68;101301.94;5056004;28;20094;-85
2021/03/07 10:56:32;;;;;;;6.65;2.22;;;;;;;4.21;65.53;101300.84;5056725;28;20052;-87
2021/03/07 10:58:58;;;;;;;10.55;2.95;;;;;;;3.96;66.37;101296.91;5055594;28;20116;-87
2021/03/07 11:01:24;;;;;;;10.38;2.70;;;;;;;4.05;65.22;101291.13;5057035;28;20060;-87
2021/03/07 11:08:09;;;;;;;11.10;3.75;;;;;;;4.19;64.55;101284.56;5059925;28;20019;-87
2021/03/07 11:11:04;;;;;;;10.48;2.95;;;;;;;4.15;65.46;101283.59;5059618;28;20021;-87
2021/03/07 11:13:30;;;;;;;9.98;3.00;;;;;;;4.16;65.16;101281.94;5077040;28;20067;-84
2021/03/07 11:15:55;;;;;;;8.25;3.40;;;;;;;4.04;65.25;101281.69;5074917;28;20037;-86
2021/03/07 11:18:20;;;;;;;8.20;3.08;;;;;;;3.96;65.08;101278.97;5074381;28;20105;-85
2021/03/07 11:20:46;;;;;;;9.52;2.67;;;;;;;3.68;66.52;101283.50;5069660;28;20028;-85
2021/03/07 11:23:15;;;;;;;10.48;2.72;;;;;;;3.73;66.52;101275.94;5071051;28;20017;-85
2021/03/07 11:25:40;;;;;;;11.20;2.83;;;;;;;3.66;66.38;101269.81;5073983;28;20005;-85
2021/03/07 11:28:05;;;;;;;9.32;2.67;;;;;;;3.72;66.45;101271.59;5074689;28;20065;-86
2021/03/07 11:30:31;;;;;;;7.35;2.80;;;;;;;3.63;66.42;101268.84;5077915;28;20036;-85
2021/03/07 11:32:56;;;;;;;7.68;2.70;;;;;;;3.78;67.15;101266.59;5078627;28;20016;-85
2021/03/07 11:35:21;;;;;;;6.93;2.65;;;;;;;3.72;66.39;101255.34;5073830;28;20029;-85
2021/03/07 11:37:46;;;;;;;8.40;2.65;;;;;;;3.72;66.13;101266.47;5075155;28;20535;-86
2021/03/07 11:40:12;;;;;;;7.95;2.60;;;;;;;3.62;66.76;101254.31;5077483;28;20017;-85
2021/03/07 11:42:37;;;;;;;7.07;2.40;;;;;;;3.59;66.91;101254.25;5077879;28;20043;-85
2021/03/07 11:45:04;;;;;;;12.55;2.60;;;;;;;3.65;67.29;101259.50;5070599;28;20034;-86
2021/03/07 11:47:29;;;;;;;10.13;2.88;;;;;;;3.50;66.45;101256.59;5072217;28;20033;-86